createdAt,value
2019-01-19T00:00:48.351Z,72.38
2019-01-19T00:01:48.337Z,72.06
2019-01-19T00:02:48.329Z,71.65
2019-01-19T00:03:48.318Z,71.65
2019-01-19T00:04:48.315Z,71.65
2019-01-19T00:05:48.302Z,71.75
2019-01-19T00:06:49.043Z,72.06
2019-01-19T00:07:48.275Z,71.89
2019-01-19T00:08:48.266Z,71.68
2019-01-19T00:09:48.277Z,72.09
2019-01-19T00:10:48.243Z,72.62
2019-01-19T00:11:48.235Z,73.45
2019-01-19T00:12:48.223Z,73.45
2019-01-19T00:13:48.210Z,73.45
2019-01-19T00:14:48.242Z,72.51
2019-01-19T00:15:48.192Z,73.14
2019-01-19T00:16:48.225Z,72.72
2019-01-19T00:17:48.171Z,73.03
2019-01-19T00:18:48.157Z,72.72
2019-01-19T00:19:48.151Z,73.35
2019-01-19T00:20:48.149Z,73.45
2019-01-19T00:21:48.130Z,73.17
2019-01-19T00:22:48.119Z,73.45
2019-01-19T00:23:48.106Z,73.76
2019-01-19T00:24:48.153Z,74.07
2019-01-19T00:25:48.097Z,73.45
2019-01-19T00:26:48.084Z,73.76
2019-01-19T00:27:48.072Z,73.55
2019-01-19T00:28:48.056Z,73.14
2019-01-19T00:29:48.050Z,73.03
2019-01-19T00:30:48.053Z,73.24
2019-01-19T00:31:48.030Z,73.42
2019-01-19T00:32:48.027Z,72.51
2019-01-19T00:33:48.015Z,73.14
2019-01-19T00:34:48.012Z,72.51
2019-01-19T00:35:47.993Z,72.20
2019-01-19T00:36:47.972Z,72.93
2019-01-19T00:37:47.960Z,73.24
2019-01-19T00:38:47.953Z,72.62
2019-01-19T00:39:47.944Z,72.83
2019-01-19T00:40:47.940Z,73.55
2019-01-19T00:41:47.920Z,73.45
2019-01-19T00:42:47.910Z,73.03
2019-01-19T00:43:47.898Z,73.14
2019-01-19T00:44:47.891Z,73.24
2019-01-19T00:45:47.889Z,73.35
2019-01-19T00:46:47.865Z,73.24
2019-01-19T00:47:47.858Z,73.55
2019-01-19T00:48:47.847Z,74.01
2019-01-19T00:49:47.838Z,73.97
2019-01-19T00:50:47.854Z,73.90
2019-01-19T00:51:47.815Z,73.45
2019-01-19T00:52:47.806Z,73.86
2019-01-19T00:53:47.813Z,73.76
2019-01-19T00:54:47.783Z,74.21
2019-01-19T00:55:47.787Z,73.90
2019-01-19T00:56:47.782Z,73.45
2019-01-19T00:57:47.759Z,73.59
2019-01-19T00:58:47.753Z,73.45
2019-01-19T00:59:47.735Z,73.66
2019-01-19T01:00:47.725Z,73.55
2019-01-19T01:01:47.747Z,73.35
2019-01-19T01:02:47.705Z,73.03
2019-01-19T01:03:47.700Z,73.14
2019-01-19T01:04:47.683Z,73.14
2019-01-19T01:05:47.671Z,73.03
2019-01-19T01:06:47.680Z,73.03
2019-01-19T01:07:47.650Z,73.45
2019-01-19T01:08:47.639Z,72.83
2019-01-19T01:09:47.628Z,72.62
2019-01-19T01:10:47.620Z,72.72
2019-01-19T01:11:47.624Z,73.35
2019-01-19T01:12:47.604Z,73.45
2019-01-19T01:13:47.608Z,73.03
2019-01-19T01:14:47.579Z,72.93
2019-01-19T01:15:47.567Z,72.72
2019-01-19T01:16:47.574Z,72.83
2019-01-19T01:17:47.544Z,72.83
2019-01-19T01:18:47.538Z,72.83
2019-01-19T01:19:47.530Z,73.55
2019-01-19T01:20:47.519Z,73.24
2019-01-19T01:21:47.513Z,72.72
2019-01-19T01:22:47.509Z,72.93
2019-01-19T01:23:47.490Z,73.24
2019-01-19T01:24:47.473Z,73.55
2019-01-19T01:25:47.459Z,73.14
2019-01-19T01:26:47.481Z,73.24
2019-01-19T01:27:47.438Z,72.93
2019-01-19T01:28:47.432Z,73.55
2019-01-19T01:29:47.417Z,74.56
2019-01-19T01:30:47.409Z,73.94
2019-01-19T01:31:47.397Z,73.00
2019-01-19T01:32:47.396Z,73.00
2019-01-19T01:33:47.376Z,73.21
2019-01-19T01:34:47.365Z,72.48
2019-01-19T01:35:47.356Z,72.89
2019-01-19T01:36:47.352Z,73.42
2019-01-19T01:37:47.357Z,72.79
2019-01-19T01:38:47.323Z,72.79
2019-01-19T01:39:47.319Z,72.79
2019-01-19T01:40:47.302Z,72.89
2019-01-19T01:41:47.307Z,73.42
2019-01-19T01:42:47.294Z,72.79
2019-01-19T01:43:47.281Z,72.17
2019-01-19T01:44:47.270Z,72.69
2019-01-19T01:45:47.250Z,72.38
2019-01-19T01:46:47.237Z,72.17
2019-01-19T01:47:47.242Z,73.00
2019-01-19T01:48:47.219Z,72.58
2019-01-19T01:49:47.213Z,71.96
2019-01-19T01:50:47.198Z,72.06
2019-01-19T01:51:47.185Z,71.78
2019-01-19T01:52:47.190Z,71.65
2019-01-19T01:53:47.172Z,71.58
2019-01-19T01:54:47.154Z,71.54
2019-01-19T01:55:47.146Z,71.33
2019-01-19T01:56:47.136Z,71.02
2019-01-19T01:57:47.135Z,71.54
2019-01-19T01:58:47.113Z,71.37
2019-01-19T01:59:47.110Z,71.44
2019-01-19T02:00:47.093Z,71.26
2019-01-19T02:01:47.124Z,71.12
2019-01-19T02:02:47.105Z,71.44
2019-01-19T02:03:47.062Z,71.44
2019-01-19T02:04:47.054Z,71.54
2019-01-19T02:05:47.043Z,71.65
2019-01-19T02:06:47.058Z,71.33
2019-01-19T02:07:47.037Z,71.23
2019-01-19T02:08:47.013Z,71.96
2019-01-19T02:09:48.651Z,71.75
2019-01-19T02:10:46.990Z,71.86
2019-01-19T02:11:46.977Z,72.06
2019-01-19T02:12:47.018Z,71.75
2019-01-19T02:13:46.957Z,71.86
2019-01-19T02:14:46.946Z,71.96
2019-01-19T02:15:46.934Z,71.86
2019-01-19T02:16:46.930Z,71.65
2019-01-19T02:17:46.925Z,71.75
2019-01-19T02:18:46.925Z,71.65
2019-01-19T02:19:46.895Z,71.12
2019-01-19T02:20:46.886Z,71.44
2019-01-19T02:21:46.874Z,70.92
2019-01-19T02:22:46.866Z,70.81
2019-01-19T02:23:46.866Z,71.23
2019-01-19T02:24:46.842Z,71.44
2019-01-19T02:25:46.833Z,70.92
2019-01-19T02:26:46.826Z,71.23
2019-01-19T02:27:46.815Z,71.23
2019-01-19T02:28:46.815Z,71.12
2019-01-19T02:29:46.787Z,71.12
2019-01-19T02:30:46.780Z,71.33
2019-01-19T02:31:46.771Z,71.65
2019-01-19T02:32:46.758Z,71.54
2019-01-19T02:33:46.761Z,71.44
2019-01-19T02:34:46.741Z,71.44
2019-01-19T02:35:48.651Z,71.33
2019-01-19T02:36:46.726Z,71.23
2019-01-19T02:37:46.708Z,71.44
2019-01-19T02:38:47.068Z,71.12
2019-01-19T02:39:46.686Z,71.54
2019-01-19T02:40:46.680Z,71.96
2019-01-19T02:41:46.665Z,71.96
2019-01-19T02:42:46.653Z,71.96
2019-01-19T02:43:46.657Z,71.96
2019-01-19T02:44:46.633Z,71.78
2019-01-19T02:45:46.625Z,71.68
2019-01-19T02:46:46.613Z,72.20
2019-01-19T02:47:46.602Z,71.99
2019-01-19T02:48:46.604Z,71.89
2019-01-19T02:49:47.585Z,71.68
2019-01-19T02:50:46.573Z,71.78
2019-01-19T02:51:46.564Z,71.68
2019-01-19T02:52:46.547Z,71.58
2019-01-19T02:53:46.745Z,71.47
2019-01-19T02:54:46.533Z,71.47
2019-01-19T02:55:46.518Z,71.58
2019-01-19T02:56:46.512Z,71.58
2019-01-19T02:57:46.497Z,71.26
2019-01-19T02:58:46.487Z,71.37
2019-01-19T02:59:46.488Z,71.16
2019-01-19T03:00:46.470Z,71.58
2019-01-19T03:01:46.455Z,71.68
2019-01-19T03:02:46.444Z,72.20
2019-01-19T03:03:46.436Z,71.99
2019-01-19T03:04:46.444Z,71.81
2019-01-19T03:05:46.440Z,71.58
2019-01-19T03:06:46.402Z,71.92
2019-01-19T03:07:46.415Z,72.02
2019-01-19T03:08:46.383Z,72.24
2019-01-19T03:09:46.382Z,72.44
2019-01-19T03:10:46.362Z,72.96
2019-01-19T03:11:46.353Z,72.65
2019-01-19T03:12:46.343Z,73.17
2019-01-19T03:13:46.328Z,72.65
2019-01-19T03:14:46.343Z,72.75
2019-01-19T03:15:46.308Z,72.47
2019-01-19T03:16:46.299Z,72.44
2019-01-19T03:17:46.291Z,72.27
2019-01-19T03:18:46.283Z,73.21
2019-01-19T03:19:46.281Z,72.47
2019-01-19T03:20:46.256Z,72.68
2019-01-19T03:21:46.262Z,73.31
2019-01-19T03:22:46.237Z,73.41
2019-01-19T03:23:46.227Z,73.21
2019-01-19T03:24:46.228Z,73.31
2019-01-19T03:25:46.247Z,72.78
2019-01-19T03:26:46.196Z,72.72
2019-01-19T03:27:46.182Z,73.34
2019-01-19T03:28:46.171Z,74.07
2019-01-19T03:29:46.175Z,73.86
2019-01-19T03:30:46.153Z,73.86
2019-01-19T03:31:46.169Z,73.76
2019-01-19T03:32:46.132Z,73.86
2019-01-19T03:33:46.122Z,73.76
2019-01-19T03:34:46.123Z,73.34
2019-01-19T03:35:46.100Z,73.45
2019-01-19T03:36:46.093Z,73.34
2019-01-19T03:37:46.082Z,73.55
2019-01-19T03:38:46.073Z,73.55
2019-01-19T03:39:46.075Z,73.86
2019-01-19T03:40:46.050Z,74.18
2019-01-19T03:41:46.040Z,74.18
2019-01-19T03:42:46.027Z,73.66
2019-01-19T03:43:46.020Z,73.66
2019-01-19T03:44:46.005Z,74.32
2019-01-19T03:45:46.015Z,74.28
2019-01-19T03:46:45.986Z,74.18
2019-01-19T03:47:45.987Z,73.66
2019-01-19T03:48:45.972Z,74.32
2019-01-19T03:49:45.955Z,74.07
2019-01-19T03:50:45.957Z,74.11
2019-01-19T03:51:45.942Z,73.86
2019-01-19T03:52:45.925Z,73.86
2019-01-19T03:53:45.924Z,73.86
2019-01-19T03:54:45.924Z,73.97
2019-01-19T03:55:45.902Z,73.66
2019-01-19T03:56:45.879Z,73.66
2019-01-19T03:57:45.870Z,73.66
2019-01-19T03:58:45.863Z,74.28
2019-01-19T03:59:45.851Z,73.79
2019-01-19T04:00:45.849Z,74.52
2019-01-19T04:01:45.828Z,74.70
2019-01-19T04:02:45.817Z,74.49
2019-01-19T04:03:45.806Z,74.70
2019-01-19T04:04:45.813Z,74.80
2019-01-19T04:05:45.805Z,74.38
2019-01-19T04:06:45.779Z,74.18
2019-01-19T04:07:45.767Z,74.18
2019-01-19T04:08:45.756Z,74.25
2019-01-19T04:09:45.745Z,74.15
2019-01-19T04:10:45.761Z,74.25
2019-01-19T04:11:45.738Z,73.93
2019-01-19T04:12:45.713Z,73.62
2019-01-19T04:13:45.708Z,74.21
2019-01-19T04:14:45.691Z,74.15
2019-01-19T04:15:45.690Z,74.25
2019-01-19T04:16:45.700Z,73.72
2019-01-19T04:17:45.668Z,73.69
2019-01-19T04:18:45.648Z,74.46
2019-01-19T04:19:45.659Z,73.80
2019-01-19T04:20:45.630Z,73.90
2019-01-19T04:21:45.636Z,73.90
2019-01-19T04:22:45.615Z,73.59
2019-01-19T04:23:45.599Z,73.59
2019-01-19T04:24:45.587Z,73.90
2019-01-19T04:25:45.578Z,73.07
2019-01-19T04:26:45.606Z,73.27
2019-01-19T04:27:45.553Z,73.27
2019-01-19T04:28:45.559Z,73.49
2019-01-19T04:29:45.537Z,73.49
2019-01-19T04:30:45.555Z,73.27
2019-01-19T04:31:45.532Z,72.65
2019-01-19T04:32:45.507Z,73.55
2019-01-19T04:33:45.502Z,72.83
2019-01-19T04:34:45.486Z,73.27
2019-01-19T04:35:45.475Z,73.17
2019-01-19T04:36:45.474Z,73.17
2019-01-19T04:37:45.454Z,72.93
2019-01-19T04:38:45.444Z,72.72
2019-01-19T04:39:45.433Z,72.72
2019-01-19T04:40:45.418Z,72.83
2019-01-19T04:41:45.438Z,73.03
2019-01-19T04:42:45.400Z,73.14
2019-01-19T04:43:45.388Z,72.09
2019-01-19T04:44:45.389Z,72.20
2019-01-19T04:45:45.384Z,72.51
2019-01-19T04:46:45.358Z,72.41
2019-01-19T04:47:45.366Z,71.99
2019-01-19T04:48:45.338Z,71.99
2019-01-19T04:49:45.327Z,72.41
2019-01-19T04:50:45.330Z,72.09
2019-01-19T04:51:45.313Z,72.09
2019-01-19T04:52:45.313Z,72.30
2019-01-19T04:53:45.294Z,72.51
2019-01-19T04:54:45.276Z,72.93
2019-01-19T04:55:45.267Z,72.83
2019-01-19T04:56:45.254Z,72.51
2019-01-19T04:57:45.256Z,72.51
2019-01-19T04:58:45.231Z,73.14
2019-01-19T04:59:45.252Z,72.41
2019-01-19T05:00:45.212Z,72.62
2019-01-19T05:01:45.200Z,72.93
2019-01-19T05:02:45.205Z,73.14
2019-01-19T05:03:45.182Z,72.83
2019-01-19T05:04:45.171Z,72.86
2019-01-19T05:05:45.158Z,72.86
2019-01-19T05:06:45.147Z,73.07
2019-01-19T05:07:45.148Z,73.27
2019-01-19T05:08:45.128Z,73.38
2019-01-19T05:09:45.126Z,73.38
2019-01-19T05:10:45.108Z,73.14
2019-01-19T05:11:45.096Z,73.49
2019-01-19T05:12:45.097Z,73.59
2019-01-19T05:13:45.076Z,73.49
2019-01-19T05:14:45.068Z,73.59
2019-01-19T05:15:45.061Z,74.21
2019-01-19T05:16:45.057Z,73.90
2019-01-19T05:17:45.048Z,74.11
2019-01-19T05:18:45.026Z,74.25
2019-01-19T05:19:45.014Z,74.87
2019-01-19T05:20:45.003Z,74.63
2019-01-19T05:21:44.995Z,74.66
2019-01-19T05:22:45.002Z,74.87
2019-01-19T05:23:44.978Z,74.87
2019-01-19T05:24:44.961Z,75.01
2019-01-19T05:25:44.947Z,75.63
2019-01-19T05:26:44.943Z,75.95
2019-01-19T05:27:44.944Z,76.16
2019-01-19T05:28:44.920Z,76.16
2019-01-19T05:29:44.913Z,76.57
2019-01-19T05:30:44.898Z,76.68
2019-01-19T05:31:44.890Z,76.61
2019-01-19T05:32:44.883Z,76.82
2019-01-19T05:33:44.895Z,77.14
2019-01-19T05:34:44.854Z,77.03
2019-01-19T05:35:44.848Z,77.14
2019-01-19T05:36:44.834Z,77.14
2019-01-19T05:37:44.848Z,77.38
2019-01-19T05:38:44.834Z,77.59
2019-01-19T05:39:44.803Z,77.59
2019-01-19T05:40:44.789Z,77.90
2019-01-19T05:41:44.782Z,78.32
2019-01-19T05:42:44.774Z,78.42
2019-01-19T05:43:44.773Z,78.53
2019-01-19T05:44:44.936Z,78.42
2019-01-19T05:45:44.744Z,78.42
2019-01-19T05:46:44.728Z,78.84
2019-01-19T05:47:44.718Z,78.94
2019-01-19T05:48:44.722Z,78.94
2019-01-19T05:49:44.696Z,78.63
2019-01-19T05:50:44.688Z,78.53
2019-01-19T05:51:44.676Z,78.94
2019-01-19T05:52:44.666Z,78.98
2019-01-19T05:53:44.664Z,78.94
2019-01-19T05:54:44.642Z,78.94
2019-01-19T05:55:44.632Z,79.19
2019-01-19T05:56:44.631Z,78.84
2019-01-19T05:57:44.617Z,79.05
2019-01-19T05:58:44.617Z,79.08
2019-01-19T05:59:44.588Z,78.74
2019-01-19T06:00:44.577Z,78.88
2019-01-19T06:01:44.573Z,79.40
2019-01-19T06:02:44.564Z,79.26
2019-01-19T06:03:44.558Z,79.40
2019-01-19T06:04:44.537Z,79.15
2019-01-19T06:05:44.528Z,79.40
2019-01-19T06:06:46.989Z,79.71
2019-01-19T06:07:44.507Z,79.71
2019-01-19T06:08:44.513Z,80.02
2019-01-19T06:09:44.489Z,80.34
2019-01-19T06:10:44.478Z,80.44
2019-01-19T06:11:44.462Z,80.34
2019-01-19T06:12:44.450Z,80.16
2019-01-19T06:13:44.454Z,80.24
2019-01-19T06:14:44.435Z,80.13
2019-01-19T06:15:44.422Z,80.16
2019-01-19T06:16:44.423Z,80.13
2019-01-19T06:17:44.403Z,80.13
2019-01-19T06:18:44.403Z,80.24
2019-01-19T06:19:44.383Z,80.24
2019-01-19T06:20:44.370Z,80.02
2019-01-19T06:21:44.392Z,80.13
2019-01-19T06:22:44.371Z,80.13
2019-01-19T06:23:44.352Z,80.34
2019-01-19T06:24:44.341Z,80.24
2019-01-19T06:25:44.336Z,80.13
2019-01-19T06:26:44.334Z,80.13
2019-01-19T06:27:44.303Z,80.09
2019-01-19T06:28:44.303Z,80.41
2019-01-19T06:29:44.279Z,80.41
2019-01-19T06:30:44.273Z,80.51
2019-01-19T06:31:44.266Z,80.51
2019-01-19T06:32:44.255Z,80.30
2019-01-19T06:33:44.250Z,79.78
2019-01-19T06:34:44.222Z,79.88
2019-01-19T06:35:44.209Z,79.99
2019-01-19T06:36:44.203Z,79.78
2019-01-19T06:37:44.199Z,79.43
2019-01-19T06:38:44.194Z,79.33
2019-01-19T06:39:44.168Z,79.11
2019-01-19T06:40:44.157Z,79.11
2019-01-19T06:41:44.147Z,79.74
2019-01-19T06:42:44.138Z,79.11
2019-01-19T06:43:44.138Z,78.80
2019-01-19T06:44:44.120Z,78.77
2019-01-19T06:45:44.103Z,79.01
2019-01-19T06:46:44.097Z,78.25
2019-01-19T06:47:44.085Z,78.59
2019-01-19T06:48:44.114Z,79.11
2019-01-19T06:49:44.068Z,78.49
2019-01-19T06:50:44.054Z,78.39
2019-01-19T06:51:44.041Z,78.87
2019-01-19T06:52:44.030Z,78.70
2019-01-19T06:53:44.025Z,78.70
2019-01-19T06:54:44.021Z,79.01
2019-01-19T06:55:44.002Z,78.91
2019-01-19T06:56:43.988Z,79.01
2019-01-19T06:57:43.977Z,78.80
2019-01-19T06:58:43.969Z,78.80
2019-01-19T06:59:43.967Z,78.77
2019-01-19T07:00:43.945Z,78.87
2019-01-19T07:01:43.958Z,78.87
2019-01-19T07:02:43.929Z,78.97
2019-01-19T07:03:43.914Z,79.08
2019-01-19T07:04:43.927Z,78.56
2019-01-19T07:05:43.893Z,78.56
2019-01-19T07:06:43.885Z,79.33
2019-01-19T07:07:43.872Z,78.80
2019-01-19T07:08:43.863Z,78.80
2019-01-19T07:09:43.860Z,78.70
2019-01-19T07:10:43.845Z,79.85
2019-01-19T07:11:43.831Z,79.74
2019-01-19T07:12:43.822Z,80.37
2019-01-19T07:13:43.821Z,80.99
2019-01-19T07:14:43.810Z,81.41
2019-01-19T07:15:43.788Z,81.73
2019-01-19T07:16:43.787Z,82.04
2019-01-19T07:17:43.767Z,82.31
2019-01-19T07:18:43.755Z,82.00
2019-01-19T07:19:43.758Z,80.99
2019-01-19T07:20:43.739Z,80.47
2019-01-19T07:21:43.724Z,80.41
2019-01-19T07:22:43.718Z,80.16
2019-01-19T07:23:43.707Z,80.05
2019-01-19T07:24:43.707Z,79.99
2019-01-19T07:25:43.689Z,80.05
2019-01-19T07:26:43.671Z,80.20
2019-01-19T07:27:43.658Z,80.20
2019-01-19T07:28:43.650Z,80.72
2019-01-19T07:29:43.653Z,80.62
2019-01-19T07:30:43.633Z,80.41
2019-01-19T07:31:43.616Z,80.72
2019-01-19T07:32:43.664Z,80.72
2019-01-19T07:33:43.604Z,80.72
2019-01-19T07:34:43.598Z,81.03
2019-01-19T07:35:43.579Z,80.93
2019-01-19T07:36:43.577Z,80.82
2019-01-19T07:37:43.578Z,80.82
2019-01-19T07:38:43.543Z,80.82
2019-01-19T07:39:43.544Z,80.62
2019-01-19T07:40:43.523Z,80.58
2019-01-19T07:41:43.514Z,80.05
2019-01-19T07:42:43.514Z,80.33
2019-01-19T07:43:43.493Z,79.81
2019-01-19T07:44:43.491Z,79.08
2019-01-19T07:45:43.473Z,78.73
2019-01-19T07:46:43.458Z,78.73
2019-01-19T07:47:43.453Z,78.00
2019-01-19T07:48:43.440Z,77.76
2019-01-19T07:49:43.445Z,77.55
2019-01-19T07:50:43.419Z,77.55
2019-01-19T07:51:43.406Z,77.13
2019-01-19T07:52:43.399Z,77.23
2019-01-19T07:53:43.385Z,77.37
2019-01-19T07:54:43.401Z,77.34
2019-01-19T07:55:43.370Z,77.27
2019-01-19T07:56:43.375Z,77.55
2019-01-19T07:57:43.347Z,77.34
2019-01-19T07:58:43.363Z,77.55
2019-01-19T07:59:43.335Z,77.45
2019-01-19T08:00:43.323Z,77.80
2019-01-19T08:01:43.303Z,77.34
2019-01-19T08:02:43.289Z,77.69
2019-01-19T08:03:43.285Z,77.90
2019-01-19T08:04:43.300Z,77.80
2019-01-19T08:05:43.265Z,77.80
2019-01-19T08:06:43.248Z,77.69
2019-01-19T08:07:43.235Z,77.48
2019-01-19T08:08:43.226Z,77.80
2019-01-19T08:09:43.285Z,77.69
2019-01-19T08:10:43.207Z,77.48
2019-01-19T08:11:43.197Z,77.69
2019-01-19T08:12:43.187Z,77.69
2019-01-19T08:13:43.174Z,77.17
2019-01-19T08:14:43.164Z,77.23
2019-01-19T08:15:43.241Z,76.61
2019-01-19T08:16:43.143Z,76.57
2019-01-19T08:17:43.149Z,76.47
2019-01-19T08:18:43.125Z,76.16
2019-01-19T08:19:43.112Z,76.06
2019-01-19T08:20:43.127Z,75.50
2019-01-19T08:21:43.091Z,75.09
2019-01-19T08:22:43.083Z,74.53
2019-01-19T08:23:43.068Z,74.43
2019-01-19T08:24:43.059Z,74.29
2019-01-19T08:25:43.060Z,73.35
2019-01-19T08:26:43.037Z,73.25
2019-01-19T08:27:43.032Z,72.69
2019-01-19T08:28:43.022Z,72.90
2019-01-19T08:29:43.004Z,72.69
2019-01-19T08:30:43.005Z,72.24
2019-01-19T08:31:43.035Z,72.34
2019-01-19T08:32:42.982Z,71.62
2019-01-19T08:33:42.966Z,70.97
2019-01-19T08:34:42.955Z,70.00
2019-01-19T08:35:42.966Z,69.76
2019-01-19T08:36:42.935Z,69.13
2019-01-19T08:37:42.939Z,68.79
2019-01-19T08:38:42.975Z,68.59
2019-01-19T08:39:42.907Z,68.51
2019-01-19T08:40:42.900Z,69.03
2019-01-19T08:41:42.885Z,68.93
2019-01-19T08:42:42.872Z,68.93
2019-01-19T08:43:42.858Z,68.79
2019-01-19T08:44:42.856Z,68.34
2019-01-19T08:45:42.868Z,67.07
2019-01-19T08:46:42.831Z,66.31
2019-01-19T08:47:42.818Z,66.11
2019-01-19T08:48:42.807Z,65.80
2019-01-19T08:49:42.797Z,66.44
2019-01-19T08:50:42.804Z,66.55
2019-01-19T08:51:42.792Z,66.44
2019-01-19T08:52:42.775Z,66.47
2019-01-19T08:53:42.760Z,66.58
2019-01-19T08:54:42.747Z,66.55
2019-01-19T08:55:42.742Z,66.24
2019-01-19T08:56:42.728Z,65.69
2019-01-19T08:57:42.717Z,65.25
2019-01-19T08:58:42.715Z,64.94
2019-01-19T08:59:42.689Z,64.73
2019-01-19T09:00:42.692Z,65.01
2019-01-19T09:01:42.676Z,65.11
2019-01-19T09:02:42.659Z,63.87
2019-01-19T09:03:42.649Z,63.35
2019-01-19T09:04:42.637Z,64.59
2019-01-19T09:05:42.637Z,64.56
2019-01-19T09:06:42.616Z,63.50
2019-01-19T09:07:42.608Z,62.77
2019-01-19T09:08:42.595Z,63.29
2019-01-19T09:09:42.591Z,61.92
2019-01-19T09:10:42.582Z,61.92
2019-01-19T09:11:42.561Z,61.58
2019-01-19T09:12:43.083Z,60.00
2019-01-19T09:13:42.544Z,60.42
2019-01-19T09:14:42.540Z,59.77
2019-01-19T09:15:42.534Z,59.46
2019-01-19T09:16:42.509Z,59.12
2019-01-19T09:17:42.498Z,59.36
2019-01-19T09:18:42.488Z,59.36
2019-01-19T09:19:42.483Z,59.36
2019-01-19T09:20:42.500Z,59.25
2019-01-19T09:21:42.459Z,59.15
2019-01-19T09:22:42.445Z,59.28
2019-01-19T09:23:42.442Z,59.39
2019-01-19T09:24:42.424Z,59.49
2019-01-19T09:25:42.414Z,59.56
2019-01-19T09:26:42.417Z,58.81
2019-01-19T09:27:42.393Z,58.06
2019-01-19T09:28:42.383Z,57.42
2019-01-19T09:29:42.371Z,57.50
2019-01-19T09:30:42.367Z,55.93
2019-01-19T09:31:42.363Z,56.13
2019-01-19T09:32:42.348Z,56.03
2019-01-19T09:33:42.387Z,55.95
2019-01-19T09:34:42.321Z,55.85
2019-01-19T09:35:42.307Z,56.18
2019-01-19T09:36:42.316Z,56.49
2019-01-19T09:37:42.289Z,56.93
2019-01-19T09:38:42.275Z,57.03
2019-01-19T09:39:42.267Z,57.37
2019-01-19T09:40:42.255Z,57.34
2019-01-19T09:41:42.259Z,57.47
2019-01-19T09:42:42.235Z,57.78
2019-01-19T09:43:42.223Z,56.83
2019-01-19T09:44:42.212Z,57.34
2019-01-19T09:45:42.218Z,57.14
2019-01-19T09:46:42.202Z,57.34
2019-01-19T09:47:42.180Z,57.65
2019-01-19T09:48:42.176Z,57.55
2019-01-19T09:49:42.160Z,57.06
2019-01-19T09:50:42.153Z,57.68
2019-01-19T09:51:42.161Z,57.99
2019-01-19T09:52:42.131Z,58.09
2019-01-19T09:53:42.118Z,57.89
2019-01-19T09:54:42.109Z,57.78
2019-01-19T09:55:42.102Z,57.86
2019-01-19T09:56:42.120Z,56.96
2019-01-19T09:57:42.083Z,57.14
2019-01-19T09:58:42.064Z,57.45
2019-01-19T09:59:42.056Z,57.55
2019-01-19T10:00:45.741Z,56.62
2019-01-19T10:01:42.045Z,57.45
2019-01-19T10:02:42.057Z,57.55
2019-01-19T10:03:42.060Z,57.06
2019-01-19T10:04:41.999Z,57.47
2019-01-19T10:05:42.005Z,57.57
2019-01-19T10:06:41.997Z,57.99
2019-01-19T10:07:48.223Z,57.47
2019-01-19T10:08:42.960Z,57.37
2019-01-19T10:09:41.949Z,57.47
2019-01-19T10:10:41.938Z,57.57
2019-01-19T10:11:41.942Z,57.89
2019-01-19T10:12:41.926Z,57.89
2019-01-19T10:13:41.914Z,57.70
2019-01-19T10:14:41.903Z,58.33
2019-01-19T10:15:41.923Z,58.87
2019-01-19T10:16:41.896Z,58.56
2019-01-19T10:17:41.865Z,59.08
2019-01-19T10:18:41.856Z,58.66
2019-01-19T10:19:41.850Z,59.18
2019-01-19T10:20:41.842Z,59.41
2019-01-19T10:21:41.838Z,59.93
2019-01-19T10:22:41.818Z,60.14
2019-01-19T10:23:41.803Z,60.16
2019-01-19T10:24:41.801Z,60.37
2019-01-19T10:25:41.804Z,60.06
2019-01-19T10:26:41.786Z,60.06
2019-01-19T10:27:41.765Z,60.06
2019-01-19T10:28:41.754Z,60.99
2019-01-19T10:29:41.741Z,60.58
2019-01-19T10:30:41.743Z,60.89
2019-01-19T10:31:41.739Z,60.58
2019-01-19T10:32:41.713Z,59.95
2019-01-19T10:33:41.700Z,60.06
2019-01-19T10:34:41.693Z,59.95
2019-01-19T10:35:41.680Z,60.89
2019-01-19T10:36:41.680Z,60.89
2019-01-19T10:37:41.656Z,60.06
2019-01-19T10:38:41.649Z,60.47
2019-01-19T10:39:41.633Z,60.47
2019-01-19T10:40:41.647Z,60.68
2019-01-19T10:41:41.645Z,60.06
2019-01-19T10:42:41.737Z,60.89
2019-01-19T10:43:41.595Z,61.40
2019-01-19T10:44:41.582Z,61.20
2019-01-19T10:45:41.571Z,61.85
2019-01-19T10:46:41.558Z,61.85
2019-01-19T10:47:41.566Z,61.85
2019-01-19T10:48:41.547Z,62.26
2019-01-19T10:49:41.534Z,61.85
2019-01-19T10:50:41.524Z,62.05
2019-01-19T10:51:41.508Z,62.08
2019-01-19T10:52:41.510Z,63.74
2019-01-19T10:53:41.489Z,63.22
2019-01-19T10:54:41.483Z,62.08
2019-01-19T10:55:41.471Z,62.29
2019-01-19T10:56:41.456Z,62.70
2019-01-19T10:57:41.455Z,61.98
2019-01-19T10:58:41.445Z,62.08
2019-01-19T10:59:41.427Z,62.18
2019-01-19T11:00:41.416Z,62.60
2019-01-19T11:01:41.402Z,61.87
2019-01-19T11:02:41.405Z,61.87
2019-01-19T11:03:41.392Z,62.21
2019-01-19T11:04:41.375Z,62.32
2019-01-19T11:05:41.365Z,62.63
2019-01-19T11:06:41.353Z,62.42
2019-01-19T11:07:41.353Z,62.84
2019-01-19T11:08:41.327Z,63.66
2019-01-19T11:09:41.319Z,63.97
2019-01-19T11:10:41.313Z,63.79
2019-01-19T11:11:41.307Z,63.79
2019-01-19T11:12:41.313Z,63.69
2019-01-19T11:13:41.278Z,63.90
2019-01-19T11:14:41.270Z,64.00
2019-01-19T11:15:41.256Z,63.79
2019-01-19T11:16:41.247Z,63.90
2019-01-19T11:17:41.254Z,64.31
2019-01-19T11:18:41.232Z,64.52
2019-01-19T11:19:41.215Z,64.07
2019-01-19T11:20:41.205Z,64.21
2019-01-19T11:21:41.191Z,64.31
2019-01-19T11:22:41.245Z,63.79
2019-01-19T11:23:41.188Z,64.00
2019-01-19T11:24:41.159Z,63.90
2019-01-19T11:25:41.155Z,63.69
2019-01-19T11:26:41.143Z,63.76
2019-01-19T11:27:41.146Z,63.46
2019-01-19T11:28:41.129Z,63.69
2019-01-19T11:29:41.107Z,64.42
2019-01-19T11:30:41.095Z,64.28
2019-01-19T11:31:41.084Z,64.07
2019-01-19T11:32:44.529Z,64.21
2019-01-19T11:33:41.064Z,63.59
2019-01-19T11:34:41.054Z,64.62
2019-01-19T11:35:41.045Z,63.69
2019-01-19T11:36:41.033Z,64.42
2019-01-19T11:37:41.034Z,64.21
2019-01-19T11:38:41.012Z,63.93
2019-01-19T11:39:41.038Z,64.45
2019-01-19T11:40:40.994Z,64.24
2019-01-19T11:41:40.985Z,64.62
2019-01-19T11:42:40.987Z,64.03
2019-01-19T11:43:40.959Z,63.90
2019-01-19T11:44:40.949Z,64.11
2019-01-19T11:45:40.939Z,64.11
2019-01-19T11:46:40.982Z,64.14
2019-01-19T11:47:40.933Z,64.24
2019-01-19T11:48:40.906Z,64.14
2019-01-19T11:49:40.892Z,63.93
2019-01-19T11:50:40.883Z,64.14
2019-01-19T11:51:40.879Z,64.45
2019-01-19T11:52:40.880Z,64.65
2019-01-19T11:53:40.854Z,64.65
2019-01-19T11:54:40.844Z,64.55
2019-01-19T11:55:40.840Z,64.62
2019-01-19T11:56:40.822Z,64.55
2019-01-19T11:57:40.810Z,64.24
2019-01-19T11:58:40.811Z,64.24
2019-01-19T11:59:40.791Z,64.65
2019-01-19T12:00:40.780Z,64.55
2019-01-19T12:01:40.783Z,64.65
2019-01-19T12:02:40.763Z,64.76
2019-01-19T12:03:40.759Z,64.97
2019-01-19T12:04:40.742Z,64.76
2019-01-19T12:05:40.756Z,65.17
2019-01-19T12:06:40.727Z,64.65
2019-01-19T12:07:40.706Z,63.82
2019-01-19T12:08:40.704Z,64.45
2019-01-19T12:09:41.254Z,64.55
2019-01-19T12:10:40.674Z,64.89
2019-01-19T12:11:40.668Z,64.79
2019-01-19T12:12:40.652Z,65.41
2019-01-19T12:13:40.661Z,65.48
2019-01-19T12:14:40.639Z,65.17
2019-01-19T12:15:40.620Z,65.48
2019-01-19T12:16:40.607Z,64.97
2019-01-19T12:17:40.611Z,64.97
2019-01-19T12:18:40.599Z,65.17
2019-01-19T12:19:40.578Z,65.07
2019-01-19T12:20:40.575Z,65.38
2019-01-19T12:21:40.559Z,65.38
2019-01-19T12:22:40.551Z,64.79
2019-01-19T12:23:40.558Z,65.48
2019-01-19T12:24:40.523Z,65.28
2019-01-19T12:25:40.515Z,65.07
2019-01-19T12:26:40.504Z,65.07
2019-01-19T12:27:40.497Z,65.52
2019-01-19T12:28:40.509Z,65.28
2019-01-19T12:29:40.489Z,65.38
2019-01-19T12:30:40.462Z,65.07
2019-01-19T12:31:40.458Z,64.76
2019-01-19T12:32:40.442Z,64.69
2019-01-19T12:33:40.450Z,65.48
2019-01-19T12:34:40.415Z,65.31
2019-01-19T12:35:40.404Z,65.17
2019-01-19T12:36:40.394Z,65.17
2019-01-19T12:37:40.382Z,65.17
2019-01-19T12:38:40.397Z,65.17
2019-01-19T12:39:40.366Z,64.86
2019-01-19T12:40:40.373Z,64.86
2019-01-19T12:41:40.351Z,63.96
2019-01-19T12:42:40.341Z,64.48
2019-01-19T12:43:40.333Z,65.20
2019-01-19T12:44:40.320Z,65.41
2019-01-19T12:45:40.304Z,65.20
2019-01-19T12:46:40.296Z,65.31
2019-01-19T12:47:40.298Z,64.69
2019-01-19T12:48:40.284Z,65.10
2019-01-19T12:49:40.269Z,65.41
2019-01-19T12:50:40.253Z,66.03
2019-01-19T12:51:40.243Z,65.41
2019-01-19T12:52:40.232Z,65.83